createdAt,value
2018-11-06T00:02:05.164Z,7.65
2018-11-06T00:04:39.911Z,8.38
2018-11-06T00:07:10.041Z,7.67
2018-11-06T00:09:38.990Z,6.65
2018-11-06T00:12:07.719Z,8.00
2018-11-06T00:14:36.428Z,8.53
2018-11-06T00:17:05.601Z,6.90
2018-11-06T00:19:34.601Z,7.78
2018-11-06T00:22:03.289Z,7.62
2018-11-06T00:24:33.019Z,7.20
2018-11-06T00:27:02.819Z,6.60
2018-11-06T00:29:31.608Z,5.85
2018-11-06T00:32:00.280Z,6.85
2018-11-06T00:34:29.020Z,6.92
2018-11-06T00:36:57.767Z,6.80
2018-11-06T00:39:26.520Z,8.13
2018-11-06T00:41:55.322Z,8.65
2018-11-06T00:44:23.995Z,6.80
2018-11-06T00:46:52.695Z,8.93
2018-11-06T00:49:21.397Z,7.42
2018-11-06T00:51:51.453Z,6.97
2018-11-06T00:54:20.899Z,7.72
2018-11-06T00:56:49.608Z,8.98
2018-11-06T00:59:18.319Z,8.73
2018-11-06T01:01:47.622Z,7.30
2018-11-06T01:04:17.519Z,7.53
2018-11-06T01:06:46.288Z,10.78
2018-11-06T01:09:16.365Z,8.03
2018-11-06T01:11:45.280Z,7.92
2018-11-06T01:14:13.949Z,8.45
2018-11-06T01:16:42.798Z,7.58
2018-11-06T01:19:11.742Z,8.78
2018-11-06T01:21:40.509Z,6.62
2018-11-06T01:24:09.812Z,7.60
2018-11-06T01:26:38.560Z,7.03
2018-11-06T01:29:14.136Z,7.05
2018-11-06T01:31:42.952Z,9.38
2018-11-06T01:34:11.739Z,5.83
2018-11-06T01:36:40.411Z,8.28
2018-11-06T01:39:10.423Z,6.85
2018-11-06T01:41:39.428Z,7.30
2018-11-06T01:44:08.430Z,7.33
2018-11-06T01:46:37.263Z,7.53
2018-11-06T01:49:06.011Z,8.63
2018-11-06T01:51:34.697Z,7.08
2018-11-06T01:54:03.473Z,6.90
2018-11-06T01:56:32.156Z,9.08
2018-11-06T01:59:00.897Z,9.20
2018-11-06T02:01:29.645Z,8.90
2018-11-06T02:03:58.338Z,7.00
2018-11-06T02:06:27.129Z,6.22
2018-11-06T02:08:55.821Z,6.30
2018-11-06T02:11:24.537Z,6.37
2018-11-06T02:13:53.363Z,7.75
2018-11-06T02:16:22.069Z,8.30
2018-11-06T02:18:50.799Z,8.13
2018-11-06T02:21:19.505Z,6.42
2018-11-06T02:23:48.207Z,6.45
2018-11-06T02:26:16.920Z,6.60
2018-11-06T02:28:45.735Z,10.38
2018-11-06T02:31:14.631Z,8.40
2018-11-06T02:33:43.359Z,8.48
2018-11-06T02:36:12.037Z,8.43
2018-11-06T02:38:40.766Z,6.42
2018-11-06T02:41:09.463Z,7.80
2018-11-06T02:43:38.203Z,6.70
2018-11-06T02:46:06.905Z,7.85
2018-11-06T02:48:35.589Z,6.15
2018-11-06T02:51:04.411Z,7.40
2018-11-06T02:53:33.129Z,5.25
2018-11-06T02:56:01.942Z,6.65
2018-11-06T02:58:30.621Z,7.55
2018-11-06T03:00:59.407Z,6.50
2018-11-06T03:03:32.603Z,7.87
2018-11-06T03:06:01.385Z,6.62
2018-11-06T03:08:30.053Z,6.50
2018-11-06T03:10:58.759Z,7.87
2018-11-06T03:13:27.471Z,6.92
2018-11-06T03:15:57.150Z,7.00
2018-11-06T03:18:25.834Z,7.37
2018-11-06T03:20:54.502Z,6.35
2018-11-06T03:23:23.233Z,8.08
2018-11-06T03:25:51.924Z,6.55
2018-11-06T03:28:20.779Z,7.80
2018-11-06T03:30:49.468Z,6.62
2018-11-06T03:33:18.204Z,6.67
2018-11-06T03:35:46.942Z,8.10
2018-11-06T03:38:15.651Z,5.03
2018-11-06T03:40:44.352Z,6.53
2018-11-06T03:43:13.120Z,6.55
2018-11-06T03:45:42.433Z,9.73
2018-11-06T03:48:11.140Z,5.70
2018-11-06T03:50:39.891Z,6.80
2018-11-06T03:53:08.656Z,9.25
2018-11-06T03:55:37.347Z,6.87
2018-11-06T03:58:06.611Z,8.78
2018-11-06T04:00:35.326Z,6.78
2018-11-06T04:03:04.106Z,7.67
2018-11-06T04:05:32.902Z,5.60
2018-11-06T04:08:01.609Z,5.95
2018-11-06T04:10:30.383Z,5.90
2018-11-06T04:12:59.148Z,4.92
2018-11-06T04:15:27.890Z,6.55
2018-11-06T04:17:56.578Z,9.58
2018-11-06T04:20:25.286Z,6.35
2018-11-06T04:22:54.006Z,6.45
2018-11-06T04:25:23.196Z,6.83
2018-11-06T04:27:51.992Z,7.47
2018-11-06T04:30:20.792Z,7.42
2018-11-06T04:32:49.568Z,5.22
2018-11-06T04:35:18.260Z,5.58
2018-11-06T04:37:46.979Z,5.65
2018-11-06T04:40:15.689Z,6.03
2018-11-06T04:42:44.659Z,5.90
2018-11-06T04:45:14.208Z,5.80
2018-11-06T04:47:43.164Z,7.20
2018-11-06T04:50:11.905Z,7.47
2018-11-06T04:52:41.285Z,7.17
2018-11-06T04:55:11.214Z,5.58
2018-11-06T04:57:39.915Z,5.80
2018-11-06T05:00:10.690Z,8.40
2018-11-06T05:02:39.616Z,4.47
2018-11-06T05:05:09.076Z,6.50
2018-11-06T05:07:38.388Z,5.25
2018-11-06T05:10:08.581Z,5.97
2018-11-06T05:12:38.096Z,5.87
2018-11-06T05:15:08.553Z,6.05
2018-11-06T05:17:37.261Z,6.53
2018-11-06T05:20:08.925Z,6.37
2018-11-06T05:22:38.999Z,7.37
2018-11-06T05:25:08.791Z,7.12
2018-11-06T05:27:38.958Z,5.42
2018-11-06T05:30:14.865Z,6.90
2018-11-06T05:32:44.531Z,5.35
2018-11-06T05:35:13.383Z,6.00
2018-11-06T05:37:42.143Z,5.65
2018-11-06T05:41:22.061Z,8.78
2018-11-06T05:43:50.809Z,4.42
2018-11-06T05:46:19.543Z,3.90
2018-11-06T05:48:49.346Z,5.50
2018-11-06T05:51:18.043Z,7.25
2018-11-06T05:53:46.736Z,5.75
2018-11-06T05:56:16.071Z,6.25
2018-11-06T05:58:44.723Z,6.45
2018-11-06T06:01:13.473Z,6.35
2018-11-06T06:03:42.215Z,5.67
2018-11-06T06:06:10.993Z,7.42
2018-11-06T06:08:39.752Z,5.50
2018-11-06T06:11:08.560Z,5.80
2018-11-06T06:13:37.231Z,5.67
2018-11-06T06:16:07.071Z,4.45
2018-11-06T06:18:35.821Z,4.30
2018-11-06T06:21:05.465Z,6.28
2018-11-06T06:23:35.428Z,4.92
2018-11-06T06:26:04.161Z,6.20
2018-11-06T06:28:32.997Z,5.35
2018-11-06T06:31:01.810Z,5.20
2018-11-06T06:33:30.508Z,6.00
2018-11-06T06:35:59.205Z,4.47
2018-11-06T06:38:28.308Z,5.55
2018-11-06T06:40:57.360Z,4.67
2018-11-06T06:43:26.121Z,4.90
2018-11-06T06:45:56.120Z,5.15
2018-11-06T06:48:24.881Z,5.45
2018-11-06T06:50:53.648Z,5.08
2018-11-06T06:53:22.614Z,3.70
2018-11-06T06:55:51.324Z,4.75
2018-11-06T06:58:20.053Z,6.10
2018-11-06T07:00:48.965Z,4.90
2018-11-06T07:03:17.657Z,5.15
2018-11-06T07:05:46.369Z,6.05
2018-11-06T07:08:15.092Z,6.72
2018-11-06T07:10:43.849Z,5.05
2018-11-06T07:13:12.605Z,5.08
2018-11-06T07:15:41.417Z,3.95
2018-11-06T07:18:10.397Z,4.92
2018-11-06T07:20:39.088Z,4.30
2018-11-06T07:23:07.883Z,5.67
2018-11-06T07:25:36.868Z,3.40
2018-11-06T07:28:05.961Z,5.60
2018-11-06T07:30:36.702Z,4.37
2018-11-06T07:33:05.418Z,4.95
2018-11-06T07:35:34.719Z,5.40
2018-11-06T07:38:03.340Z,4.35
2018-11-06T07:40:32.061Z,5.33
2018-11-06T07:43:00.781Z,4.47
2018-11-06T07:45:29.530Z,4.83
2018-11-06T07:47:59.104Z,5.17
2018-11-06T07:50:27.994Z,5.42
2018-11-06T07:52:56.625Z,5.33
2018-11-06T07:55:25.579Z,3.77
2018-11-06T07:57:54.331Z,6.47
2018-11-06T08:00:24.446Z,3.80
2018-11-06T08:02:53.161Z,4.12
2018-11-06T08:05:22.457Z,4.85
2018-11-06T08:07:52.034Z,3.85
2018-11-06T08:10:20.822Z,5.17
2018-11-06T08:12:51.868Z,4.12
2018-11-06T08:15:20.812Z,4.20
2018-11-06T08:17:49.740Z,4.28
2018-11-06T08:20:18.423Z,4.35
2018-11-06T08:22:47.147Z,5.10
2018-11-06T08:25:17.526Z,4.47
2018-11-06T08:27:46.591Z,6.50
2018-11-06T08:30:15.330Z,4.70
2018-11-06T08:32:44.271Z,3.72
2018-11-06T08:35:15.253Z,4.85
2018-11-06T08:37:45.231Z,5.35
2018-11-06T08:40:15.493Z,4.62
2018-11-06T08:42:44.221Z,4.37
2018-11-06T08:45:14.108Z,6.75
2018-11-06T08:47:43.938Z,6.35
2018-11-06T08:50:14.840Z,5.05
2018-11-06T08:52:43.748Z,4.22
2018-11-06T08:55:13.555Z,3.85
2018-11-06T08:57:43.429Z,4.75
2018-11-06T09:00:15.232Z,4.15
2018-11-06T09:02:45.021Z,4.22
2018-11-06T09:05:14.694Z,4.65
2018-11-06T09:07:43.629Z,4.53
2018-11-06T09:10:13.460Z,5.80
2018-11-06T09:12:42.193Z,4.80
2018-11-06T09:15:12.683Z,4.22
2018-11-06T09:17:42.694Z,4.65
2018-11-06T09:20:12.696Z,5.50
2018-11-06T09:22:41.569Z,4.78
2018-11-06T09:25:13.314Z,4.85
2018-11-06T09:27:42.951Z,6.12
2018-11-06T09:30:15.625Z,5.10
2018-11-06T09:32:44.402Z,3.80
2018-11-06T09:35:13.704Z,4.25
2018-11-06T09:37:42.897Z,4.60
2018-11-06T09:40:14.280Z,4.62
2018-11-06T09:42:43.028Z,4.80
2018-11-06T09:45:12.593Z,5.28
2018-11-06T09:47:41.243Z,4.28
2018-11-06T09:50:13.201Z,4.87
2018-11-06T09:52:42.535Z,4.67
2018-11-06T09:55:11.419Z,4.25
2018-11-06T09:57:40.123Z,6.05
2018-11-06T10:00:11.791Z,5.10
2018-11-06T10:02:40.466Z,3.95
2018-11-06T10:05:09.912Z,4.10
2018-11-06T10:07:38.896Z,4.53
2018-11-06T10:10:11.599Z,3.90
2018-11-06T10:12:40.837Z,3.77
2018-11-06T10:15:11.729Z,3.30
2018-11-06T10:17:41.561Z,4.08
2018-11-06T10:20:11.183Z,3.75
2018-11-06T10:22:39.878Z,3.30
2018-11-06T10:25:08.919Z,4.00
2018-11-06T10:27:38.220Z,4.35
2018-11-06T10:30:08.953Z,3.70
2018-11-06T10:32:39.101Z,3.55
2018-11-06T10:35:08.382Z,3.30
2018-11-06T10:37:37.084Z,4.28
2018-11-06T10:40:09.429Z,3.90
2018-11-06T10:42:38.173Z,2.90
2018-11-06T10:45:07.416Z,3.42
2018-11-06T10:47:36.554Z,2.67
2018-11-06T10:50:05.656Z,3.42
2018-11-06T10:52:35.289Z,3.05
2018-11-06T10:55:04.165Z,3.37
2018-11-06T10:57:32.905Z,4.72
2018-11-06T11:00:01.774Z,3.55
2018-11-06T11:02:36.147Z,3.33
2018-11-06T11:05:05.344Z,3.33
2018-11-06T11:07:34.103Z,4.15
2018-11-06T11:10:02.920Z,3.60
2018-11-06T11:12:31.694Z,3.30
2018-11-06T11:15:00.881Z,3.55
2018-11-06T11:17:31.027Z,3.17
2018-11-06T11:20:01.102Z,4.95
2018-11-06T11:22:29.901Z,2.70
2018-11-06T11:24:58.606Z,3.08
2018-11-06T11:27:28.019Z,4.60
2018-11-06T11:29:57.216Z,2.80
2018-11-06T11:32:25.956Z,3.52
2018-11-06T11:34:54.685Z,3.50
2018-11-06T11:37:23.425Z,5.58
2018-11-06T11:39:54.600Z,3.58
2018-11-06T11:42:23.265Z,4.00
2018-11-06T11:44:52.005Z,3.70
2018-11-06T11:47:20.877Z,3.77
2018-11-06T11:49:49.596Z,3.10
2018-11-06T11:52:18.349Z,5.00
2018-11-06T11:54:47.037Z,3.60
2018-11-06T11:57:15.771Z,3.80
2018-11-06T11:59:44.508Z,3.52
2018-11-06T12:02:13.924Z,3.10
2018-11-06T12:04:43.976Z,3.37
2018-11-06T12:07:12.788Z,3.05
2018-11-06T12:09:41.504Z,3.33
2018-11-06T12:12:11.199Z,3.55
2018-11-06T12:14:41.189Z,2.85
2018-11-06T12:17:09.995Z,4.05
2018-11-06T12:19:38.821Z,3.50
2018-11-06T12:22:07.891Z,2.77
2018-11-06T12:24:36.742Z,2.75
2018-11-06T12:27:06.546Z,3.02
2018-11-06T12:29:35.488Z,3.98
2018-11-06T12:32:04.175Z,4.00
2018-11-06T12:34:33.021Z,4.40
2018-11-06T12:37:01.815Z,2.72
2018-11-06T12:39:32.954Z,2.22
2018-11-06T12:42:01.611Z,4.00
2018-11-06T12:44:30.433Z,4.42
2018-11-06T12:46:59.167Z,3.58
2018-11-06T12:49:28.000Z,3.40
2018-11-06T12:51:56.726Z,2.70
2018-11-06T12:54:25.436Z,3.47
2018-11-06T12:56:55.530Z,3.60
2018-11-06T12:59:24.828Z,2.47
2018-11-06T13:01:53.552Z,4.28
2018-11-06T13:04:22.291Z,3.80
2018-11-06T13:06:51.044Z,3.15
2018-11-06T13:09:19.801Z,3.85
2018-11-06T13:11:48.512Z,3.10
2018-11-06T13:14:17.247Z,3.15
2018-11-06T13:16:45.932Z,4.25
2018-11-06T13:19:14.614Z,3.95
2018-11-06T13:21:43.328Z,3.27
2018-11-06T13:24:12.294Z,2.90
2018-11-06T13:26:41.060Z,3.85
2018-11-06T13:29:10.004Z,3.67
2018-11-06T13:31:39.478Z,2.85
2018-11-06T13:34:08.249Z,3.02
2018-11-06T13:36:36.949Z,2.90
2018-11-06T13:39:09.466Z,3.25
2018-11-06T13:41:38.158Z,4.00
2018-11-06T13:44:07.596Z,3.90
2018-11-06T13:46:36.284Z,4.62
2018-11-06T13:49:05.222Z,3.33
2018-11-06T13:51:33.978Z,3.00
2018-11-06T13:54:02.677Z,3.27
2018-11-06T13:56:31.453Z,3.10
2018-11-06T13:59:00.730Z,3.12
2018-11-06T14:01:29.545Z,3.40
2018-11-06T14:03:58.240Z,2.75
2018-11-06T14:06:26.969Z,4.12
2018-11-06T14:08:55.770Z,4.15
2018-11-06T14:11:24.594Z,2.20
2018-11-06T14:13:53.281Z,3.15
2018-11-06T14:16:22.005Z,2.55
2018-11-06T14:18:50.721Z,2.83
2018-11-06T14:21:19.680Z,3.08
2018-11-06T14:23:49.317Z,3.27
2018-11-06T14:26:18.548Z,2.83
2018-11-06T14:28:47.247Z,2.85
2018-11-06T14:31:16.022Z,3.05
2018-11-06T14:33:44.863Z,2.30
2018-11-06T14:36:15.070Z,3.80
2018-11-06T14:38:44.327Z,3.02
2018-11-06T14:41:13.057Z,3.27
2018-11-06T14:43:41.793Z,3.20
2018-11-06T14:46:10.887Z,3.50
2018-11-06T14:48:39.743Z,3.30
2018-11-06T14:51:08.371Z,4.42
2018-11-06T14:53:37.069Z,2.75
2018-11-06T14:56:06.098Z,3.55
2018-11-06T14:58:34.877Z,3.90
2018-11-06T15:01:03.620Z,3.17
2018-11-06T15:03:32.334Z,3.15
2018-11-06T15:06:01.180Z,2.98
2018-11-06T15:08:30.628Z,2.98
2018-11-06T15:10:59.380Z,3.42
2018-11-06T15:13:28.107Z,1.60
2018-11-06T15:15:57.148Z,2.50
2018-11-06T15:18:26.117Z,3.62
2018-11-06T15:20:55.010Z,3.42
2018-11-06T15:23:23.701Z,3.77
2018-11-06T15:25:52.441Z,2.05
2018-11-06T15:28:21.278Z,2.27
2018-11-06T15:30:50.126Z,2.37
2018-11-06T15:33:19.080Z,2.80
2018-11-06T15:35:48.379Z,3.12
2018-11-06T15:38:17.965Z,2.30
2018-11-06T15:40:46.717Z,2.40
2018-11-06T15:43:15.577Z,3.05
2018-11-06T15:45:44.555Z,2.58
2018-11-06T15:48:13.461Z,2.90
2018-11-06T15:50:42.405Z,2.83
2018-11-06T15:53:11.396Z,2.92
2018-11-06T15:55:40.150Z,2.80
2018-11-06T15:58:08.877Z,2.90
2018-11-06T16:00:38.624Z,2.83
2018-11-06T16:03:07.542Z,2.47
2018-11-06T16:05:36.346Z,2.95
2018-11-06T16:08:05.363Z,3.37
2018-11-06T16:10:34.620Z,2.55
2018-11-06T16:13:03.346Z,2.37
2018-11-06T16:15:32.247Z,2.62
2018-11-06T16:18:00.932Z,2.70
2018-11-06T16:20:29.681Z,2.85
2018-11-06T16:23:02.246Z,2.60
2018-11-06T16:25:31.068Z,2.70
2018-11-06T16:27:59.823Z,4.33
2018-11-06T16:30:29.250Z,3.58
2018-11-06T16:32:59.766Z,4.78
2018-11-06T16:35:28.576Z,3.40
2018-11-06T16:37:57.370Z,5.95
2018-11-06T16:40:26.325Z,6.33
2018-11-06T16:42:55.066Z,5.92
2018-11-06T16:45:23.816Z,7.12
2018-11-06T16:47:54.917Z,5.28
2018-11-06T16:50:25.391Z,4.35
2018-11-06T16:52:54.106Z,3.92
2018-11-06T16:55:22.837Z,2.98
2018-11-06T16:57:52.100Z,3.10
2018-11-06T17:00:22.799Z,5.72
2018-11-06T17:02:51.564Z,4.12
2018-11-06T17:05:20.301Z,4.40
2018-11-06T17:07:49.537Z,6.25
2018-11-06T17:10:18.741Z,4.75
2018-11-06T17:12:47.493Z,3.95
2018-11-06T17:15:18.186Z,4.10
2018-11-06T17:17:47.896Z,5.33
2018-11-06T17:20:16.913Z,3.40
2018-11-06T17:22:45.763Z,4.75
2018-11-06T17:25:17.346Z,3.00
2018-11-06T17:27:46.144Z,5.50
2018-11-06T17:30:16.006Z,4.60
2018-11-06T17:32:44.933Z,3.80
2018-11-06T17:35:15.977Z,5.58
2018-11-06T17:37:44.943Z,3.25
2018-11-06T17:40:17.771Z,4.12
2018-11-06T17:42:47.924Z,2.77
2018-11-06T17:45:21.157Z,4.62
2018-11-06T17:47:51.642Z,3.95
2018-11-06T17:50:22.463Z,4.75
2018-11-06T17:52:51.200Z,3.75
2018-11-06T17:55:21.092Z,4.05
2018-11-06T17:57:49.573Z,3.15
2018-11-06T18:00:20.406Z,4.50
2018-11-06T18:02:49.398Z,3.60
2018-11-06T18:05:19.568Z,3.80
2018-11-06T18:07:51.420Z,3.65
2018-11-06T18:10:20.879Z,3.00
2018-11-06T18:12:49.721Z,3.27
2018-11-06T18:15:18.393Z,4.75
2018-11-06T18:17:47.313Z,3.45
2018-11-06T18:20:16.132Z,2.40
2018-11-06T18:22:45.435Z,3.42
2018-11-06T18:25:14.536Z,2.60
2018-11-06T18:27:43.147Z,3.85
2018-11-06T18:30:14.232Z,2.60
2018-11-06T18:32:42.908Z,3.80
2018-11-06T18:35:12.873Z,3.98
2018-11-06T18:37:41.738Z,3.50
2018-11-06T18:40:13.228Z,4.12
2018-11-06T18:42:42.425Z,3.30
2018-11-06T18:45:11.228Z,3.22
2018-11-06T18:47:39.942Z,3.80
2018-11-06T18:50:10.413Z,3.60
2018-11-06T18:52:39.309Z,2.70
2018-11-06T18:55:08.018Z,4.05
2018-11-06T18:57:36.801Z,3.92
2018-11-06T19:00:07.531Z,3.47
2018-11-06T19:02:36.273Z,4.20
2018-11-06T19:05:05.215Z,5.97
2018-11-06T19:07:33.908Z,4.67
2018-11-06T19:10:03.273Z,3.35
2018-11-06T19:12:32.097Z,3.60
2018-11-06T19:15:00.844Z,5.22
2018-11-06T19:17:29.668Z,4.20
2018-11-06T19:19:58.329Z,3.30
2018-11-06T19:22:27.114Z,4.28
2018-11-06T19:24:55.882Z,3.35
2018-11-06T19:27:24.581Z,4.45
2018-11-06T19:29:53.312Z,5.30
2018-11-06T19:32:22.138Z,3.33
2018-11-06T19:34:50.888Z,4.15
2018-11-06T19:37:19.760Z,3.33
2018-11-06T19:39:48.469Z,4.58
2018-11-06T19:42:17.246Z,4.55
2018-11-06T19:44:46.532Z,5.72
2018-11-06T19:47:15.398Z,3.77
2018-11-06T19:49:44.108Z,5.40
2018-11-06T19:52:12.898Z,4.72
2018-11-06T19:54:41.684Z,5.72
2018-11-06T19:57:10.495Z,4.20
2018-11-06T19:59:39.261Z,4.78
2018-11-06T20:02:08.246Z,3.90
2018-11-06T20:04:37.144Z,5.12
2018-11-06T20:07:05.920Z,3.10
2018-11-06T20:09:34.824Z,3.87
2018-11-06T20:12:03.706Z,2.45
2018-11-06T20:14:32.315Z,5.53
2018-11-06T20:17:01.095Z,2.83
2018-11-06T20:19:29.845Z,3.72
2018-11-06T20:21:58.676Z,2.90
2018-11-06T20:24:27.425Z,3.77
2018-11-06T20:26:56.168Z,4.12
2018-11-06T20:29:25.041Z,3.45
2018-11-06T20:31:53.874Z,4.95
2018-11-06T20:34:22.971Z,3.95
2018-11-06T20:36:51.751Z,4.45
2018-11-06T20:39:20.878Z,4.40
2018-11-06T20:41:51.153Z,2.55
2018-11-06T20:44:20.097Z,3.35
2018-11-06T20:46:48.818Z,4.37
2018-11-06T20:49:17.691Z,4.03
2018-11-06T20:51:46.352Z,3.60
2018-11-06T20:54:15.145Z,3.55
2018-11-06T20:56:43.873Z,3.05
2018-11-06T20:59:12.721Z,2.72
2018-11-06T21:01:42.842Z,4.30
2018-11-06T21:04:11.627Z,3.17
2018-11-06T21:06:40.326Z,3.47
2018-11-06T21:09:10.003Z,3.30
2018-11-06T21:11:39.388Z,5.53
2018-11-06T21:14:08.149Z,5.33
2018-11-06T21:16:36.810Z,3.62
2018-11-06T21:19:05.613Z,5.20
2018-11-06T21:21:34.490Z,5.45
2018-11-06T21:24:03.215Z,4.45
2018-11-06T21:26:32.499Z,3.80
2018-11-06T21:29:01.756Z,4.20
2018-11-06T21:31:30.583Z,3.42
2018-11-06T21:33:59.381Z,3.50
2018-11-06T21:36:28.012Z,4.37
2018-11-06T21:38:56.777Z,4.35
2018-11-06T21:41:25.709Z,5.15
2018-11-06T21:43:54.458Z,3.95
2018-11-06T21:46:23.232Z,3.10
2018-11-06T21:48:52.005Z,6.03
2018-11-06T21:51:20.851Z,3.35
2018-11-06T21:53:49.609Z,2.83
2018-11-06T21:56:18.334Z,3.08
2018-11-06T21:58:47.135Z,4.50
2018-11-06T22:01:15.717Z,5.03
2018-11-06T22:03:44.446Z,3.05
2018-11-06T22:06:13.339Z,4.12
2018-11-06T22:08:42.044Z,4.30
2018-11-06T22:11:10.827Z,4.65
2018-11-06T22:13:39.570Z,3.75
2018-11-06T22:16:08.339Z,3.25
2018-11-06T22:18:37.083Z,2.98
2018-11-06T22:21:05.839Z,3.25
2018-11-06T22:23:34.554Z,3.52
2018-11-06T22:26:03.234Z,3.75
2018-11-06T22:28:32.051Z,3.98
2018-11-06T22:31:00.833Z,3.62
2018-11-06T22:33:29.538Z,3.52
2018-11-06T22:35:58.247Z,4.55
2018-11-06T22:38:26.945Z,5.17
2018-11-06T22:40:55.785Z,3.42
2018-11-06T22:43:24.552Z,3.70
2018-11-06T22:45:53.281Z,3.60
2018-11-06T22:48:23.357Z,3.33
2018-11-06T22:50:52.125Z,4.05
2018-11-06T22:53:20.874Z,3.33
2018-11-06T22:55:49.579Z,5.90
2018-11-06T22:58:18.287Z,4.37
2018-11-06T23:00:52.399Z,3.55
2018-11-06T23:03:21.114Z,2.95
2018-11-06T23:05:49.936Z,3.02
2018-11-06T23:08:25.291Z,4.05
2018-11-06T23:10:54.236Z,3.75
2018-11-06T23:13:22.945Z,3.37
2018-11-06T23:15:51.708Z,4.47
2018-11-06T23:18:20.429Z,4.08
2018-11-06T23:20:49.179Z,4.05
2018-11-06T23:23:17.979Z,4.03
2018-11-06T23:25:46.761Z,3.92
2018-11-06T23:28:15.418Z,5.03
2018-11-06T23:30:44.210Z,3.33
2018-11-06T23:33:12.911Z,3.55
2018-11-06T23:35:41.682Z,5.50
2018-11-06T23:38:10.320Z,5.58
2018-11-06T23:40:39.001Z,5.22
2018-11-06T23:43:07.859Z,4.22
2018-11-06T23:45:36.550Z,4.83
2018-11-06T23:48:05.357Z,4.70
2018-11-06T23:50:34.056Z,5.35
2018-11-06T23:53:02.805Z,3.50
2018-11-06T23:55:31.453Z,7.00
2018-11-06T23:58:00.277Z,4.33
